createdAt,value
2018-10-11T00:01:55.989Z,11.65
2018-10-11T00:04:24.798Z,11.68
2018-10-11T00:06:53.584Z,11.57
2018-10-11T00:09:22.549Z,11.48
2018-10-11T00:11:51.297Z,11.43
2018-10-11T00:14:20.118Z,11.38
2018-10-11T00:16:48.945Z,11.38
2018-10-11T00:19:17.720Z,11.44
2018-10-11T00:21:46.476Z,11.49
2018-10-11T00:24:15.193Z,11.51
2018-10-11T00:26:43.941Z,11.52
2018-10-11T00:29:12.714Z,11.51
2018-10-11T00:31:41.453Z,11.48
2018-10-11T00:34:10.234Z,11.50
2018-10-11T00:36:39.057Z,11.53
2018-10-11T00:39:08.630Z,11.49
2018-10-11T00:41:37.416Z,11.44
2018-10-11T00:44:06.215Z,11.47
2018-10-11T00:46:35.030Z,11.43
2018-10-11T00:49:03.917Z,11.39
2018-10-11T00:51:32.719Z,11.40
2018-10-11T00:54:01.615Z,11.37
2018-10-11T00:56:30.450Z,11.31
2018-10-11T00:58:59.337Z,11.26
2018-10-11T01:01:28.248Z,11.20
2018-10-11T01:03:57.445Z,11.14
2018-10-11T01:06:26.371Z,11.08
2018-10-11T01:08:55.162Z,10.98
2018-10-11T01:11:23.961Z,10.93
2018-10-11T01:13:52.741Z,10.91
2018-10-11T01:16:21.509Z,10.90
2018-10-11T01:18:50.321Z,10.90
2018-10-11T01:21:19.094Z,10.91
2018-10-11T01:23:47.988Z,10.90
2018-10-11T01:26:16.970Z,10.91
2018-10-11T01:28:45.773Z,10.95
2018-10-11T01:31:20.469Z,10.94
2018-10-11T01:33:49.356Z,10.98
2018-10-11T01:36:18.133Z,10.93
2018-10-11T01:38:48.995Z,10.92
2018-10-11T01:41:18.082Z,10.88
2018-10-11T01:43:46.825Z,10.78
2018-10-11T01:46:15.687Z,10.76
2018-10-11T01:48:44.892Z,10.69
2018-10-11T01:51:13.707Z,10.66
2018-10-11T01:53:42.513Z,10.66
2018-10-11T01:56:11.333Z,10.55
2018-10-11T01:58:40.123Z,10.43
2018-10-11T02:01:08.877Z,10.38
2018-10-11T02:03:37.670Z,10.34
2018-10-11T02:06:06.516Z,10.34
2018-10-11T02:08:35.279Z,10.38
2018-10-11T02:11:04.073Z,10.39
2018-10-11T02:13:33.197Z,10.41
2018-10-11T02:16:01.996Z,10.40
2018-10-11T02:18:30.769Z,10.45
2018-10-11T02:20:59.562Z,10.48
2018-10-11T02:23:28.347Z,10.50
2018-10-11T02:25:57.219Z,10.52
2018-10-11T02:28:26.026Z,10.55
2018-10-11T02:30:54.867Z,10.53
2018-10-11T02:33:23.713Z,10.55
2018-10-11T02:35:52.464Z,10.61
2018-10-11T02:38:21.332Z,10.57
2018-10-11T02:40:50.153Z,10.55
2018-10-11T02:43:18.972Z,10.54
2018-10-11T02:45:47.778Z,10.47
2018-10-11T02:48:16.585Z,10.44
2018-10-11T02:50:45.374Z,10.42
2018-10-11T02:53:14.100Z,10.39
2018-10-11T02:55:42.958Z,10.38
2018-10-11T02:58:22.796Z,10.29
2018-10-11T03:00:51.637Z,10.20
2018-10-11T03:03:22.677Z,10.18
2018-10-11T03:05:51.942Z,10.15
2018-10-11T03:08:22.494Z,10.09
2018-10-11T03:10:51.804Z,10.06
2018-10-11T03:13:20.645Z,10.04
2018-10-11T03:15:49.486Z,10.03
2018-10-11T03:18:19.062Z,10.04
2018-10-11T03:20:47.844Z,9.94
2018-10-11T03:23:16.693Z,10.02
2018-10-11T03:25:46.405Z,9.98
2018-10-11T03:28:16.464Z,9.91
2018-10-11T03:30:45.455Z,9.84
2018-10-11T03:33:15.065Z,9.86
2018-10-11T03:35:44.653Z,9.89
2018-10-11T03:38:13.787Z,9.88
2018-10-11T03:40:42.944Z,9.86
2018-10-11T03:43:11.753Z,9.83
2018-10-11T03:45:40.516Z,9.76
2018-10-11T03:48:09.509Z,9.70
2018-10-11T03:50:38.252Z,9.70
2018-10-11T03:53:07.538Z,9.78
2018-10-11T03:55:36.366Z,9.85
2018-10-11T03:58:05.325Z,9.88
2018-10-11T04:00:34.233Z,9.90
2018-10-11T04:03:03.441Z,9.91
2018-10-11T04:05:32.357Z,9.91
2018-10-11T04:08:01.247Z,9.90
2018-10-11T04:10:30.072Z,9.81
2018-10-11T04:12:59.109Z,9.82
2018-10-11T04:15:30.853Z,9.74
2018-10-11T04:17:59.749Z,9.71
2018-10-11T04:20:28.498Z,9.68
2018-10-11T04:22:57.252Z,9.62
2018-10-11T04:25:27.123Z,9.69
2018-10-11T04:27:55.919Z,9.70
2018-10-11T04:30:25.241Z,9.68
2018-10-11T04:32:55.071Z,9.64
2018-10-11T04:35:23.872Z,9.61
2018-10-11T04:37:52.702Z,9.66
2018-10-11T04:40:21.525Z,9.76
2018-10-11T04:42:50.501Z,9.76
2018-10-11T04:45:19.336Z,9.84
2018-10-11T04:47:48.153Z,9.91
2018-10-11T04:50:17.133Z,9.96
2018-10-11T04:52:46.066Z,10.04
2018-10-11T04:55:14.886Z,10.19
2018-10-11T04:57:43.701Z,10.35
2018-10-11T05:00:14.001Z,10.43
2018-10-11T05:02:42.777Z,10.53
2018-10-11T05:05:11.639Z,10.56
2018-10-11T05:07:40.571Z,10.61
2018-10-11T05:10:09.470Z,10.60
2018-10-11T05:12:38.313Z,10.64
2018-10-11T05:15:07.762Z,10.77
2018-10-11T05:17:36.674Z,10.73
2018-10-11T05:20:05.627Z,10.67
2018-10-11T05:22:34.653Z,10.69
2018-10-11T05:25:03.445Z,10.67
2018-10-11T05:27:32.654Z,10.72
2018-10-11T05:30:01.905Z,10.74
2018-10-11T05:32:31.126Z,10.75
2018-10-11T05:35:00.038Z,10.80
2018-10-11T05:37:29.216Z,10.85
2018-10-11T05:39:58.266Z,10.87
2018-10-11T05:42:27.276Z,10.90
2018-10-11T05:45:04.022Z,10.89
2018-10-11T05:47:33.016Z,10.90
2018-10-11T05:50:02.297Z,10.97
2018-10-11T05:52:31.179Z,10.99
2018-10-11T05:54:59.971Z,11.07
2018-10-11T05:57:28.901Z,11.18
2018-10-11T05:59:58.053Z,11.33
2018-10-11T06:02:27.444Z,11.42
2018-10-11T06:04:56.744Z,11.45
2018-10-11T06:07:25.755Z,11.50
2018-10-11T06:09:54.767Z,11.52
2018-10-11T06:12:23.778Z,11.60
2018-10-11T06:14:53.094Z,11.73
2018-10-11T06:17:22.373Z,11.85
2018-10-11T06:19:51.578Z,11.95
2018-10-11T06:22:20.459Z,12.01
2018-10-11T06:24:49.837Z,12.08
2018-10-11T06:27:18.862Z,12.19
2018-10-11T06:29:47.829Z,12.24
2018-10-11T06:32:16.701Z,12.28
2018-10-11T06:34:45.593Z,12.29
2018-10-11T06:37:14.851Z,12.41
2018-10-11T06:39:43.721Z,12.37
2018-10-11T06:42:12.818Z,12.38
2018-10-11T06:44:41.929Z,12.46
2018-10-11T06:47:10.868Z,12.62
2018-10-11T06:49:40.117Z,12.65
2018-10-11T06:52:09.311Z,12.70
2018-10-11T06:54:38.187Z,12.80
2018-10-11T06:57:07.617Z,12.78
2018-10-11T06:59:36.548Z,12.88
2018-10-11T07:02:05.756Z,12.70
2018-10-11T07:04:34.623Z,12.71
2018-10-11T07:07:03.504Z,12.76
2018-10-11T07:09:32.271Z,12.87
2018-10-11T07:12:01.115Z,12.97
2018-10-11T07:14:29.931Z,13.06
2018-10-11T07:16:58.746Z,13.17
2018-10-11T07:19:27.659Z,13.29
2018-10-11T07:21:58.852Z,13.35
2018-10-11T07:24:27.673Z,13.35
2018-10-11T07:26:56.454Z,13.43
2018-10-11T07:29:25.320Z,13.42
2018-10-11T07:31:54.043Z,13.55
2018-10-11T07:34:22.820Z,13.62
2018-10-11T07:36:51.836Z,13.67
2018-10-11T07:39:20.594Z,13.85
2018-10-11T07:41:49.367Z,13.77
2018-10-11T07:44:18.123Z,13.85
2018-10-11T07:46:46.967Z,13.87
2018-10-11T07:49:15.729Z,13.81
2018-10-11T07:51:44.524Z,13.87
2018-10-11T07:54:13.316Z,13.96
2018-10-11T07:56:42.061Z,14.00
2018-10-11T07:59:10.863Z,14.11
2018-10-11T08:01:39.674Z,14.28
2018-10-11T08:04:08.599Z,14.40
2018-10-11T08:06:37.358Z,14.51
2018-10-11T08:09:07.907Z,14.63
2018-10-11T08:11:36.883Z,14.73
2018-10-11T08:14:05.922Z,14.80
2018-10-11T08:16:34.811Z,14.93
2018-10-11T08:19:04.014Z,15.03
2018-10-11T08:21:32.733Z,15.02
2018-10-11T08:24:01.827Z,15.12
2018-10-11T08:26:31.041Z,15.12
2018-10-11T08:28:59.686Z,15.25
2018-10-11T08:31:28.413Z,15.27
2018-10-11T08:33:57.242Z,15.30
2018-10-11T08:36:26.033Z,15.42
2018-10-11T08:38:54.886Z,15.59
2018-10-11T08:41:23.679Z,15.69
2018-10-11T08:43:52.481Z,15.73
2018-10-11T08:46:21.462Z,15.59
2018-10-11T08:48:50.141Z,15.79
2018-10-11T08:51:18.893Z,15.95
2018-10-11T08:53:47.759Z,16.08
2018-10-11T08:56:16.761Z,16.36
2018-10-11T08:58:45.528Z,16.43
2018-10-11T09:01:14.302Z,16.73
2018-10-11T09:03:43.165Z,16.99
2018-10-11T09:06:12.156Z,17.27
2018-10-11T09:08:41.031Z,17.38
2018-10-11T09:11:09.837Z,17.22
2018-10-11T09:13:38.828Z,17.41
2018-10-11T09:16:07.610Z,17.46
2018-10-11T09:18:36.397Z,17.56
2018-10-11T09:21:05.170Z,17.57
2018-10-11T09:23:33.932Z,17.73
2018-10-11T09:26:02.681Z,17.74
2018-10-11T09:28:31.466Z,17.77
2018-10-11T09:31:00.274Z,17.77
2018-10-11T09:33:29.107Z,17.99
2018-10-11T09:35:57.922Z,18.03
2018-10-11T09:38:27.459Z,18.08
2018-10-11T09:40:56.285Z,18.20
2018-10-11T09:43:25.045Z,18.23
2018-10-11T09:45:53.907Z,18.09
2018-10-11T09:48:22.643Z,18.02
2018-10-11T09:50:51.431Z,18.16
2018-10-11T09:53:20.170Z,18.27
2018-10-11T09:55:48.998Z,18.14
2018-10-11T09:58:17.745Z,18.24
2018-10-11T10:00:51.741Z,18.20
2018-10-11T10:03:20.545Z,17.99
2018-10-11T10:05:49.319Z,18.15
2018-10-11T10:08:18.028Z,18.06
2018-10-11T10:10:46.788Z,17.96
2018-10-11T10:13:15.530Z,17.93
2018-10-11T10:15:44.548Z,17.88
2018-10-11T10:18:13.403Z,17.71
2018-10-11T10:20:42.178Z,17.37
2018-10-11T10:23:11.041Z,17.46
2018-10-11T10:25:39.969Z,17.43
2018-10-11T10:28:08.980Z,17.54
2018-10-11T10:30:42.878Z,17.92
2018-10-11T10:33:11.631Z,18.12
2018-10-11T10:35:40.366Z,18.25
2018-10-11T10:38:09.535Z,18.42
2018-10-11T10:40:38.342Z,18.70
2018-10-11T10:43:07.119Z,18.96
2018-10-11T10:45:35.845Z,19.21
2018-10-11T10:48:04.575Z,19.30
2018-10-11T10:50:33.350Z,19.27
2018-10-11T10:53:02.102Z,19.17
2018-10-11T10:55:30.854Z,19.08
2018-10-11T10:57:59.606Z,19.10
2018-10-11T11:00:28.430Z,19.24
2018-10-11T11:02:57.180Z,19.09
2018-10-11T11:05:25.936Z,18.81
2018-10-11T11:07:54.759Z,18.66
2018-10-11T11:10:23.473Z,18.60
2018-10-11T11:12:52.234Z,18.46
2018-10-11T11:15:21.687Z,18.18
2018-10-11T11:17:50.459Z,18.13
2018-10-11T11:20:19.179Z,18.10
2018-10-11T11:22:48.096Z,18.08
2018-10-11T11:25:16.883Z,18.06
2018-10-11T11:27:45.822Z,18.09
2018-10-11T11:30:14.570Z,18.11
2018-10-11T11:32:43.271Z,18.09
2018-10-11T11:35:12.079Z,18.18
2018-10-11T11:37:40.800Z,18.09
2018-10-11T11:40:09.538Z,18.18
2018-10-11T11:42:38.471Z,18.35
2018-10-11T11:45:07.243Z,18.42
2018-10-11T11:47:36.016Z,18.37
2018-10-11T11:50:04.889Z,18.39
2018-10-11T11:52:33.619Z,18.45
2018-10-11T11:55:02.374Z,18.47
2018-10-11T11:57:31.115Z,18.50
2018-10-11T12:00:00.002Z,18.56
2018-10-11T12:02:28.740Z,18.53
2018-10-11T12:04:57.676Z,18.54
2018-10-11T12:07:26.649Z,18.54
2018-10-11T12:09:55.346Z,18.63
2018-10-11T12:13:01.402Z,18.71
2018-10-11T12:15:31.055Z,18.83
2018-10-11T12:18:01.026Z,18.81
2018-10-11T12:20:31.965Z,18.66
2018-10-11T12:23:01.999Z,18.65
2018-10-11T12:25:31.148Z,18.58
2018-10-11T12:27:59.971Z,18.55
2018-10-11T12:30:28.791Z,18.61
2018-10-11T12:32:57.553Z,18.72
2018-10-11T12:35:27.086Z,18.81
2018-10-11T12:37:55.844Z,18.92
2018-10-11T12:40:24.634Z,19.07
2018-10-11T12:42:53.399Z,19.26
2018-10-11T12:45:22.282Z,19.32
2018-10-11T12:47:51.504Z,19.40
2018-10-11T12:50:20.582Z,19.38
2018-10-11T12:52:49.399Z,19.44
2018-10-11T12:55:18.189Z,19.57
2018-10-11T12:57:46.902Z,19.58
2018-10-11T13:00:16.932Z,19.43
2018-10-11T13:02:45.940Z,19.21
2018-10-11T13:05:14.861Z,19.11
2018-10-11T13:07:43.604Z,18.86
2018-10-11T13:10:12.366Z,18.76
2018-10-11T13:12:41.145Z,18.69
2018-10-11T13:15:10.015Z,18.47
2018-10-11T13:17:42.817Z,18.36
2018-10-11T13:20:08.423Z,18.23
2018-10-11T13:22:37.205Z,18.15
2018-10-11T13:25:06.198Z,18.18
2018-10-11T13:27:34.957Z,18.23
2018-10-11T13:30:04.918Z,18.19
2018-10-11T13:32:33.639Z,18.22
2018-10-11T13:35:02.362Z,18.22
2018-10-11T13:37:31.237Z,18.26
2018-10-11T13:39:59.958Z,18.35
2018-10-11T13:42:28.719Z,18.44
2018-10-11T13:44:57.559Z,18.42
2018-10-11T13:47:26.505Z,18.47
2018-10-11T13:49:55.408Z,18.35
2018-10-11T13:52:24.158Z,18.30
2018-10-11T13:54:52.850Z,18.38
2018-10-11T13:57:25.120Z,18.45
2018-10-11T13:59:50.501Z,18.20
2018-10-11T14:02:19.214Z,18.03
2018-10-11T14:04:47.941Z,17.77
2018-10-11T14:07:17.727Z,17.74
2018-10-11T14:09:46.918Z,17.71
2018-10-11T14:12:15.676Z,17.62
2018-10-11T14:14:44.451Z,17.69
2018-10-11T14:17:14.414Z,17.64
2018-10-11T14:19:43.257Z,17.64
2018-10-11T14:22:17.458Z,17.57
2018-10-11T14:24:47.259Z,17.45
2018-10-11T14:27:18.678Z,17.41
2018-10-11T14:29:47.479Z,17.29
2018-10-11T14:32:16.191Z,17.26
2018-10-11T14:34:44.942Z,17.29
2018-10-11T14:37:14.068Z,17.28
2018-10-11T14:39:42.886Z,17.24
2018-10-11T14:42:12.165Z,17.21
2018-10-11T14:44:45.033Z,17.20
2018-10-11T14:47:14.374Z,17.22
2018-10-11T14:49:43.325Z,17.17
2018-10-11T14:52:12.772Z,17.09
2018-10-11T14:54:41.900Z,16.97
2018-10-11T14:57:13.309Z,16.93
2018-10-11T14:59:45.433Z,16.92
2018-10-11T15:02:14.235Z,16.87
2018-10-11T15:04:45.558Z,16.89
2018-10-11T15:07:15.222Z,16.86
2018-10-11T15:09:43.903Z,16.85
2018-10-11T15:12:12.867Z,16.87
2018-10-11T15:14:41.607Z,16.88
2018-10-11T15:17:10.327Z,16.73
2018-10-11T15:19:39.022Z,16.70
2018-10-11T15:22:07.737Z,16.66
2018-10-11T15:24:36.655Z,16.57
2018-10-11T15:27:05.406Z,16.43
2018-10-11T15:29:34.136Z,16.33
2018-10-11T15:32:03.093Z,16.27
2018-10-11T15:34:31.790Z,16.21
2018-10-11T15:37:00.640Z,16.09
2018-10-11T15:39:29.375Z,16.05
2018-10-11T15:41:58.208Z,16.01
2018-10-11T15:44:26.969Z,15.98
2018-10-11T15:46:55.782Z,15.97
2018-10-11T15:49:24.758Z,15.94
2018-10-11T15:51:53.508Z,15.92
2018-10-11T15:54:22.240Z,15.93
2018-10-11T15:56:50.957Z,15.96
2018-10-11T15:59:19.699Z,15.94
2018-10-11T16:01:48.504Z,15.93
2018-10-11T16:04:17.329Z,15.88
2018-10-11T16:06:46.064Z,15.86
2018-10-11T16:09:14.883Z,15.86
2018-10-11T16:11:43.804Z,15.82
2018-10-11T16:14:12.532Z,15.83
2018-10-11T16:16:41.279Z,15.79
2018-10-11T16:19:10.051Z,15.73
2018-10-11T16:21:38.754Z,15.70
2018-10-11T16:24:07.543Z,15.70
2018-10-11T16:26:36.276Z,15.69
2018-10-11T16:29:05.044Z,15.69
2018-10-11T16:31:33.856Z,15.73
2018-10-11T16:34:02.622Z,15.74
2018-10-11T16:36:31.408Z,15.78
2018-10-11T16:39:00.287Z,15.75
2018-10-11T16:41:29.038Z,15.78
2018-10-11T16:43:58.005Z,15.81
2018-10-11T16:46:26.800Z,15.85
2018-10-11T16:48:55.552Z,15.79
2018-10-11T16:51:24.267Z,15.74
2018-10-11T16:53:53.183Z,15.73
2018-10-11T16:56:22.024Z,15.70
2018-10-11T16:58:50.757Z,15.63
2018-10-11T17:01:19.591Z,15.58
2018-10-11T17:03:48.388Z,15.53
2018-10-11T17:06:17.142Z,15.52
2018-10-11T17:08:45.838Z,15.53
2018-10-11T17:11:14.519Z,15.50
2018-10-11T17:13:43.290Z,15.54
2018-10-11T17:16:12.003Z,15.55
2018-10-11T17:18:40.791Z,15.58
2018-10-11T17:21:09.994Z,15.54
2018-10-11T17:23:38.714Z,15.54
2018-10-11T17:26:07.586Z,15.52
2018-10-11T17:28:40.309Z,15.50
2018-10-11T17:31:09.123Z,15.54
2018-10-11T17:33:37.867Z,15.57
2018-10-11T17:36:06.649Z,15.54
2018-10-11T17:38:35.449Z,15.55
2018-10-11T17:41:04.521Z,15.52
2018-10-11T17:43:33.349Z,15.51
2018-10-11T17:46:02.845Z,15.50
2018-10-11T17:48:31.648Z,15.48
2018-10-11T17:51:00.347Z,15.45
2018-10-11T17:53:29.151Z,15.33
2018-10-11T17:55:57.943Z,15.34
2018-10-11T17:58:26.696Z,15.31
2018-10-11T18:00:55.438Z,15.30
2018-10-11T18:03:24.228Z,15.31
2018-10-11T18:05:53.078Z,15.25
2018-10-11T18:08:21.856Z,15.22
2018-10-11T18:10:50.570Z,15.18
2018-10-11T18:13:19.620Z,15.13
2018-10-11T18:15:48.415Z,15.12
2018-10-11T18:18:17.263Z,15.06
2018-10-11T18:20:46.037Z,15.03
2018-10-11T18:23:14.772Z,15.02
2018-10-11T18:25:43.535Z,15.00
2018-10-11T18:28:12.256Z,14.97
2018-10-11T18:30:41.048Z,15.00
2018-10-11T18:33:09.764Z,15.00
2018-10-11T18:35:38.568Z,14.98
2018-10-11T18:38:07.515Z,14.99
2018-10-11T18:40:36.265Z,15.00
2018-10-11T18:43:05.042Z,15.02
2018-10-11T18:45:33.866Z,15.02
2018-10-11T18:48:02.581Z,15.02
2018-10-11T18:50:31.446Z,15.03
2018-10-11T18:53:00.179Z,15.04
2018-10-11T18:55:29.022Z,15.00
2018-10-11T18:57:57.771Z,15.01
2018-10-11T19:00:26.740Z,14.99
2018-10-11T19:02:55.499Z,15.05
2018-10-11T19:05:24.291Z,15.08
2018-10-11T19:07:53.041Z,15.04
2018-10-11T19:10:21.832Z,14.99
2018-10-11T19:12:50.591Z,15.01
2018-10-11T19:15:19.353Z,14.95
2018-10-11T19:17:48.087Z,14.94
2018-10-11T19:20:16.891Z,14.97
2018-10-11T19:22:45.885Z,14.94
2018-10-11T19:25:14.702Z,14.93
2018-10-11T19:27:43.431Z,14.99
2018-10-11T19:30:12.158Z,15.02
2018-10-11T19:32:40.943Z,15.06
2018-10-11T19:35:09.796Z,15.06
2018-10-11T19:37:38.587Z,15.10
2018-10-11T19:40:07.344Z,15.15
2018-10-11T19:42:36.087Z,15.15
2018-10-11T19:45:04.931Z,15.09
2018-10-11T19:47:33.605Z,15.08
2018-10-11T19:50:02.435Z,15.06
2018-10-11T19:52:31.166Z,14.99
2018-10-11T19:54:59.871Z,14.94
2018-10-11T19:57:28.702Z,14.94
2018-10-11T19:59:57.415Z,14.93
2018-10-11T20:02:26.150Z,14.93
2018-10-11T20:04:54.910Z,14.91
2018-10-11T20:07:23.627Z,14.90
2018-10-11T20:09:52.351Z,14.86
2018-10-11T20:12:21.081Z,14.89
2018-10-11T20:14:49.793Z,14.95
2018-10-11T20:17:18.699Z,14.94
2018-10-11T20:19:47.527Z,14.95
2018-10-11T20:22:16.358Z,14.95
2018-10-11T20:24:45.119Z,14.97
2018-10-11T20:27:13.823Z,15.01
2018-10-11T20:29:42.605Z,15.02
2018-10-11T20:32:12.154Z,15.03
2018-10-11T20:34:40.902Z,15.03
2018-10-11T20:37:09.693Z,14.98
2018-10-11T20:39:38.434Z,14.99
2018-10-11T20:42:07.310Z,14.95
2018-10-11T20:44:36.027Z,14.94
2018-10-11T20:47:04.847Z,14.91
2018-10-11T20:49:33.618Z,14.90
2018-10-11T20:52:02.374Z,14.93
2018-10-11T20:54:31.250Z,14.89
2018-10-11T20:56:59.974Z,14.84
2018-10-11T20:59:28.665Z,14.86
2018-10-11T21:01:57.378Z,14.84
2018-10-11T21:04:26.065Z,14.88
2018-10-11T21:06:55.068Z,14.87
2018-10-11T21:09:23.968Z,14.87
2018-10-11T21:11:52.897Z,14.86
2018-10-11T21:14:21.895Z,14.88
2018-10-11T21:16:50.752Z,14.88
2018-10-11T21:19:19.679Z,14.89
2018-10-11T21:21:48.642Z,14.92
2018-10-11T21:24:17.467Z,14.93
2018-10-11T21:26:46.360Z,14.93
2018-10-11T21:29:15.216Z,14.98
2018-10-11T21:31:44.084Z,15.01
2018-10-11T21:34:13.046Z,15.02
2018-10-11T21:36:42.120Z,15.05
2018-10-11T21:39:12.783Z,15.05
2018-10-11T21:41:42.201Z,14.96
2018-10-11T21:44:12.048Z,14.92
2018-10-11T21:46:41.060Z,14.81
2018-10-11T21:49:10.272Z,14.74
2018-10-11T21:51:39.178Z,14.61
2018-10-11T21:54:08.118Z,14.51
2018-10-11T21:56:37.023Z,14.47
2018-10-11T21:59:05.892Z,14.44
2018-10-11T22:01:34.851Z,14.40
2018-10-11T22:04:03.826Z,14.40
2018-10-11T22:06:32.687Z,14.37
2018-10-11T22:09:01.636Z,14.38
2018-10-11T22:11:30.524Z,14.38
2018-10-11T22:13:59.448Z,14.38
2018-10-11T22:16:28.710Z,14.40
2018-10-11T22:18:57.641Z,14.40
2018-10-11T22:21:26.568Z,14.36
2018-10-11T22:23:55.452Z,14.33
2018-10-11T22:26:24.315Z,14.26
2018-10-11T22:28:53.223Z,14.24
2018-10-11T22:31:22.115Z,14.22
2018-10-11T22:33:51.096Z,14.22
2018-10-11T22:36:20.070Z,14.19
2018-10-11T22:38:48.867Z,14.15
2018-10-11T22:41:17.867Z,14.10
2018-10-11T22:43:46.707Z,14.09
2018-10-11T22:46:15.954Z,14.09
2018-10-11T22:48:44.972Z,14.06
2018-10-11T22:51:13.939Z,14.03
2018-10-11T22:53:43.218Z,13.93
2018-10-11T22:56:12.089Z,13.91
2018-10-11T22:58:41.364Z,13.91
2018-10-11T23:01:10.086Z,13.91
2018-10-11T23:03:39.139Z,13.90
2018-10-11T23:06:07.897Z,13.89
2018-10-11T23:08:36.863Z,13.85
2018-10-11T23:11:05.581Z,13.80
2018-10-11T23:13:34.355Z,13.81
2018-10-11T23:16:03.034Z,13.77
2018-10-11T23:18:31.918Z,13.78
2018-10-11T23:21:00.710Z,13.74
2018-10-11T23:23:29.446Z,13.74
2018-10-11T23:25:58.270Z,13.75
2018-10-11T23:28:27.038Z,13.74
2018-10-11T23:30:55.767Z,13.74
2018-10-11T23:33:24.487Z,13.73
2018-10-11T23:35:53.255Z,13.73
2018-10-11T23:38:22.010Z,13.72
2018-10-11T23:40:50.734Z,13.70
2018-10-11T23:43:19.499Z,13.65
2018-10-11T23:45:48.254Z,13.61
2018-10-11T23:48:17.018Z,13.62
2018-10-11T23:50:45.739Z,13.63
2018-10-11T23:53:14.486Z,13.67
2018-10-11T23:55:43.347Z,13.71
2018-10-11T23:58:12.092Z,13.71
